createdAt,value
2019-03-30T00:00:42.491Z,74.60
2019-03-30T00:05:56.402Z,83.50
2019-03-30T00:11:19.823Z,90.94
2019-03-30T00:16:25.846Z,78.25
2019-03-30T00:21:28.982Z,75.25
2019-03-30T00:26:53.090Z,87.79
2019-03-30T00:32:18.834Z,93.71
2019-03-30T00:37:30.634Z,91.79
2019-03-30T00:42:35.087Z,79.33
2019-03-30T00:47:58.066Z,82.75
2019-03-30T00:53:09.408Z,79.71
2019-03-30T01:03:45.899Z,81.00
2019-03-30T01:15:21.305Z,91.65
2019-03-30T01:20:28.538Z,104.87
2019-03-30T01:25:32.690Z,77.00
2019-03-30T01:30:49.791Z,76.74
2019-03-30T01:36:06.258Z,89.70
2019-03-30T01:42:34.038Z,79.12
2019-03-30T01:47:42.245Z,77.09
2019-03-30T01:52:45.976Z,74.20
2019-03-30T01:57:50.041Z,78.20
2019-03-30T02:02:55.103Z,88.50
2019-03-30T02:08:07.750Z,75.94
2019-03-30T02:13:20.998Z,75.67
2019-03-30T02:18:30.135Z,76.17
2019-03-30T02:23:33.806Z,75.80
2019-03-30T02:28:43.079Z,76.67
2019-03-30T02:33:46.867Z,77.50
2019-03-30T02:38:50.751Z,81.80
2019-03-30T02:43:54.478Z,78.80
2019-03-30T02:49:04.179Z,79.89
2019-03-30T02:54:16.551Z,81.08
2019-03-30T02:59:20.996Z,81.50
2019-03-30T03:04:35.053Z,90.00
2019-03-30T03:09:44.208Z,77.27
2019-03-30T03:14:59.979Z,79.83
2019-03-30T03:20:05.062Z,80.00
2019-03-30T03:25:09.949Z,79.00
2019-03-30T03:30:14.407Z,77.33
2019-03-30T03:35:21.035Z,81.80
2019-03-30T03:40:24.780Z,85.60
2019-03-30T03:45:29.101Z,79.17
2019-03-30T03:50:41.057Z,77.30
2019-03-30T03:55:55.041Z,75.55
2019-03-30T04:01:04.676Z,102.00
2019-03-30T04:06:15.971Z,72.62
2019-03-30T04:11:22.975Z,69.87
2019-03-30T04:16:29.753Z,79.25
2019-03-30T04:21:44.250Z,76.37
2019-03-30T04:26:48.221Z,72.25
2019-03-30T04:31:56.404Z,70.00
2019-03-30T04:37:05.945Z,63.44
2019-03-30T04:42:15.245Z,75.00
2019-03-30T04:47:22.111Z,73.00
2019-03-30T04:52:32.899Z,76.50
2019-03-30T04:57:40.072Z,79.00
2019-03-30T05:02:48.472Z,75.22
2019-03-30T05:07:55.950Z,71.62
2019-03-30T05:13:02.610Z,74.37
2019-03-30T05:18:08.355Z,75.62
2019-03-30T05:23:18.094Z,71.11
2019-03-30T05:28:25.344Z,71.62
2019-03-30T05:33:35.854Z,72.50
2019-03-30T05:38:45.126Z,72.45
2019-03-30T05:43:55.152Z,74.60
2019-03-30T05:49:02.450Z,72.20
2019-03-30T05:54:12.259Z,69.90
2019-03-30T05:59:23.222Z,76.46
2019-03-30T06:04:26.980Z,69.00
2019-03-30T06:09:30.900Z,62.00
2019-03-30T06:14:34.571Z,70.00
2019-03-30T06:19:50.121Z,71.07
2019-03-30T06:24:54.696Z,71.17
2019-03-30T06:30:14.935Z,70.12
2019-03-30T06:35:18.996Z,72.00
2019-03-30T06:40:23.018Z,74.75
2019-03-30T06:45:29.942Z,69.00
2019-03-30T06:50:38.579Z,67.67
2019-03-30T06:55:43.270Z,61.67
2019-03-30T07:00:47.930Z,70.00
2019-03-30T07:05:52.606Z,65.67
2019-03-30T07:11:20.946Z,70.48
2019-03-30T07:16:33.100Z,73.20
2019-03-30T07:21:55.918Z,82.41
2019-03-30T07:32:07.944Z,73.00
2019-03-30T07:37:15.130Z,66.75
2019-03-30T07:42:21.527Z,60.50
2019-03-30T07:47:25.391Z,63.33
2019-03-30T07:52:29.339Z,63.00
2019-03-30T07:57:33.266Z,65.00
2019-03-30T08:02:36.980Z,63.50
2019-03-30T08:07:47.417Z,73.10
2019-03-30T08:12:55.040Z,64.20
2019-03-30T08:17:58.678Z,64.00
2019-03-30T08:23:05.140Z,56.50
2019-03-30T08:28:09.152Z,64.00
2019-03-30T08:33:20.181Z,69.60
2019-03-30T08:38:28.655Z,55.91
2019-03-30T08:43:41.150Z,57.75
2019-03-30T08:48:49.026Z,62.44
2019-03-30T08:53:54.779Z,57.00
2019-03-30T08:58:59.510Z,62.00
2019-03-30T09:04:07.863Z,67.40
2019-03-30T09:09:12.415Z,56.75
2019-03-30T09:14:16.750Z,56.50
2019-03-30T09:19:23.087Z,51.63
2019-03-30T09:24:30.036Z,61.13
2019-03-30T09:29:38.596Z,56.45
2019-03-30T09:34:49.008Z,66.08
2019-03-30T09:39:54.755Z,62.50
2019-03-30T09:45:00.094Z,55.71
2019-03-30T09:50:04.683Z,57.00
2019-03-30T09:55:13.434Z,63.87
2019-03-30T10:00:17.636Z,50.33
2019-03-30T10:05:26.292Z,58.36
2019-03-30T10:10:35.662Z,56.37
2019-03-30T10:15:38.898Z,56.25
2019-03-30T10:20:43.192Z,57.50
2019-03-30T10:25:46.756Z,52.00
2019-03-30T10:30:50.954Z,52.75
2019-03-30T10:35:55.482Z,52.50
2019-03-30T10:41:03.219Z,57.43
2019-03-30T10:46:07.230Z,52.00
2019-03-30T10:51:13.298Z,56.63
2019-03-30T10:56:20.151Z,63.25
2019-03-30T11:01:28.018Z,55.38
2019-03-30T11:06:37.035Z,59.75
2019-03-30T11:11:44.690Z,52.38
2019-03-30T11:16:47.814Z,48.67
2019-03-30T11:21:52.030Z,61.20
2019-03-30T11:26:59.574Z,57.33
2019-03-30T11:32:07.226Z,55.70
2019-03-30T11:37:12.547Z,54.00
2019-03-30T11:42:17.849Z,41.20
2019-03-30T11:47:31.253Z,42.56
2019-03-30T11:52:35.075Z,44.50
2019-03-30T11:57:41.386Z,46.13
2019-03-30T12:02:50.038Z,57.00
2019-03-30T12:08:02.731Z,68.00
2019-03-30T12:13:12.194Z,53.00
2019-03-30T12:18:21.424Z,46.82
2019-03-30T12:23:29.534Z,67.70
2019-03-30T12:28:36.236Z,47.00
2019-03-30T12:33:46.083Z,45.78
2019-03-30T12:38:51.419Z,36.29
2019-03-30T12:43:59.551Z,47.00
2019-03-30T12:49:05.720Z,43.25
2019-03-30T12:54:11.446Z,34.86
2019-03-30T12:59:14.606Z,48.00
2019-03-30T13:04:18.522Z,45.00
2019-03-30T13:09:24.267Z,39.43
2019-03-30T13:14:29.186Z,43.29
2019-03-30T13:19:34.318Z,39.71
2019-03-30T13:24:37.322Z,37.75
2019-03-30T13:29:43.711Z,39.63
2019-03-30T13:34:50.499Z,46.63
2019-03-30T13:39:56.669Z,41.29
2019-03-30T13:45:03.491Z,39.50
2019-03-30T13:50:07.856Z,32.00
2019-03-30T13:55:13.264Z,33.00
2019-03-30T14:00:19.518Z,41.50
2019-03-30T14:05:25.302Z,41.71
2019-03-30T14:10:28.955Z,41.33
2019-03-30T14:15:37.249Z,38.25
2019-03-30T14:20:40.346Z,23.00
2019-03-30T14:25:46.012Z,29.71
2019-03-30T14:30:52.358Z,31.50
2019-03-30T14:35:56.594Z,33.75
2019-03-30T14:41:03.960Z,24.25
2019-03-30T14:46:07.986Z,34.33
2019-03-30T14:51:14.510Z,37.13
2019-03-30T14:56:19.338Z,26.00
2019-03-30T15:01:25.780Z,29.25
2019-03-30T15:06:30.764Z,24.43
2019-03-30T15:11:38.004Z,24.37
2019-03-30T15:16:43.499Z,32.63
2019-03-30T15:21:47.680Z,37.00
2019-03-30T15:26:59.868Z,25.71
2019-03-30T15:31:58.128Z,24.50
2019-03-30T15:37:05.632Z,44.25
2019-03-30T15:42:09.019Z,45.00
2019-03-30T15:47:13.172Z,37.75
2019-03-30T15:52:18.210Z,39.33
2019-03-30T15:57:25.360Z,52.00
2019-03-30T16:02:30.403Z,38.75
2019-03-30T16:07:34.384Z,40.67
2019-03-30T16:12:43.640Z,42.11
2019-03-30T16:17:49.177Z,49.00
2019-03-30T16:22:52.862Z,46.25
2019-03-30T16:27:56.696Z,49.00
2019-03-30T16:33:02.940Z,43.75
2019-03-30T16:38:09.316Z,46.86
2019-03-30T16:43:16.499Z,45.71
2019-03-30T16:48:25.110Z,39.50
2019-03-30T16:53:28.028Z,42.25
2019-03-30T16:58:33.701Z,37.00
2019-03-30T17:03:37.437Z,49.33
2019-03-30T17:08:46.158Z,43.50
2019-03-30T17:13:53.083Z,45.63
2019-03-30T17:19:00.935Z,36.25
2019-03-30T17:24:08.073Z,54.00
2019-03-30T17:29:11.855Z,49.33
2019-03-30T17:34:19.944Z,51.00
2019-03-30T17:39:25.446Z,53.75
2019-03-30T17:44:28.618Z,54.33
2019-03-30T17:49:32.567Z,50.00
2019-03-30T17:54:39.965Z,63.75
2019-03-30T17:59:45.226Z,55.00
2019-03-30T18:04:50.949Z,60.12
2019-03-30T18:10:03.223Z,61.63
2019-03-30T18:15:09.471Z,58.00
2019-03-30T18:20:16.357Z,60.75
2019-03-30T18:25:21.467Z,70.00
2019-03-30T18:30:40.232Z,68.00
2019-03-30T18:35:48.089Z,72.37
2019-03-30T18:40:56.179Z,69.14
2019-03-30T18:46:06.231Z,71.78
2019-03-30T18:51:15.788Z,68.67
2019-03-30T18:56:27.902Z,67.78
2019-03-30T19:01:32.026Z,72.33
2019-03-30T19:06:37.654Z,72.00
2019-03-30T19:11:41.767Z,69.00
2019-03-30T19:16:50.860Z,73.56
2019-03-30T19:22:02.080Z,70.62
2019-03-30T19:27:11.030Z,67.00
2019-03-30T19:32:14.927Z,62.00
2019-03-30T19:37:24.897Z,65.11
2019-03-30T19:42:30.715Z,67.00
2019-03-30T19:47:38.433Z,67.22
2019-03-30T19:52:42.942Z,66.00
2019-03-30T19:57:53.513Z,67.64
2019-03-30T20:03:01.884Z,72.37
2019-03-30T20:08:12.394Z,63.92
2019-03-30T20:13:20.645Z,71.50
2019-03-30T20:18:25.095Z,80.25
2019-03-30T20:23:29.823Z,78.33
2019-03-30T20:28:48.323Z,84.70
2019-03-30T20:34:01.228Z,91.00
2019-03-30T20:39:08.366Z,84.20
2019-03-30T20:44:13.250Z,90.00
2019-03-30T20:49:17.856Z,110.00
2019-03-30T20:54:21.464Z,107.00
2019-03-30T20:59:40.374Z,109.21
2019-03-30T21:04:44.935Z,104.00
2019-03-30T21:10:22.116Z,109.64
2019-03-30T21:15:45.644Z,101.96
2019-03-30T21:21:02.082Z,101.09
2019-03-30T22:14:46.128Z,95.00
2019-03-30T22:19:56.196Z,88.56
2019-03-30T22:25:04.929Z,89.56
2019-03-30T22:30:24.530Z,89.22
2019-03-30T22:35:25.552Z,90.11
2019-03-30T22:40:35.298Z,90.56
2019-03-30T22:45:45.852Z,94.70
2019-03-30T22:50:55.584Z,94.00
2019-03-30T22:56:03.483Z,90.89
2019-03-30T23:01:12.646Z,91.00
2019-03-30T23:06:21.740Z,92.22
2019-03-30T23:11:31.749Z,93.56
2019-03-30T23:16:39.250Z,81.56
2019-03-30T23:21:49.766Z,85.00
2019-03-30T23:26:57.863Z,87.56
2019-03-30T23:32:07.475Z,81.00
2019-03-30T23:37:17.225Z,82.33
2019-03-30T23:42:27.040Z,78.56
2019-03-30T23:47:31.483Z,79.25
2019-03-30T23:52:40.274Z,75.78
2019-03-30T23:57:47.386Z,75.78
